Time;durP1;ratioP1;P1;durP2;ratioP2;P2;SDS_P1;SDS_P2;PMS_P1;PMS_P2;Temp;Humidity;BMP_temperature;BMP_pressure;BME280_temperature;BME280_humidity;BME280_pressure;Samples;Min_cycle;Max_cycle;Signal;HPM_P1;HPM_P2
2021/01/08 00:01:12;;;;;;;11.00;9.03;;;;;;;;;;5036706;28;20742;-58
2021/01/08 00:03:39;;;;;;;10.40;8.70;;;;;;;;;;5042605;28;20464;-58
2021/01/08 00:06:05;;;;;;;11.07;9.23;;;;;;;;;;5038846;28;20186;-59
2021/01/08 00:08:31;;;;;;;10.07;8.87;;;;;;;;;;5036004;28;20420;-58
2021/01/08 00:10:57;;;;;;;8.47;7.40;;;;;;;;;;5035039;28;20421;-58
2021/01/08 00:13:24;;;;;;;8.47;7.53;;;;;;;;;;5032185;28;20198;-58
2021/01/08 00:15:50;;;;;;;9.13;7.50;;;;;;;;;;5033132;28;20174;-58
2021/01/08 00:18:16;;;;;;;8.33;7.50;;;;;;;;;;5052545;28;20436;-61
2021/01/08 00:20:41;;;;;;;10.80;8.90;;;;;;;;;;5048002;28;20424;-58
2021/01/08 00:23:07;;;;;;;10.13;8.07;;;;;;;;;;5037793;28;20174;-59
2021/01/08 00:25:34;;;;;;;9.87;8.23;;;;;;;;;;5042675;28;20273;-58
2021/01/08 00:28:00;;;;;;;8.70;7.80;;;;;;;;;;5043602;28;20636;-58
2021/01/08 00:30:26;;;;;;;9.20;7.53;;;;;;;;;;5047749;28;20448;-61
2021/01/08 00:32:52;;;;;;;9.23;8.23;;;;;;;;;;5044802;28;20419;-58
2021/01/08 00:35:18;;;;;;;10.03;8.67;;;;;;;;;;5044007;28;20467;-58
2021/01/08 00:37:44;;;;;;;9.47;7.97;;;;;;;;;;5049001;28;20424;-58
2021/01/08 00:40:10;;;;;;;10.03;8.33;;;;;;;;;;5038371;28;20935;-58
2021/01/08 00:42:37;;;;;;;10.93;9.30;;;;;;;;;;5047424;28;20628;-58
2021/01/08 00:45:03;;;;;;;8.80;7.80;;;;;;;;;;5049161;28;20439;-58
2021/01/08 00:47:29;;;;;;;9.03;8.13;;;;;;;;;;5034364;28;20433;-58
2021/01/08 00:49:55;;;;;;;10.40;7.93;;;;;;;;;;5032157;28;20428;-58
2021/01/08 00:52:21;;;;;;;9.70;8.13;;;;;;;;;;5048879;28;20435;-61
2021/01/08 00:54:48;;;;;;;9.70;8.37;;;;;;;;;;5043041;28;20202;-58
2021/01/08 00:57:14;;;;;;;9.40;7.90;;;;;;;;;;5043905;28;20181;-58
2021/01/08 00:59:41;;;;;;;9.13;8.10;;;;;;;;;;5049516;28;20428;-58
2021/01/08 01:02:07;;;;;;;10.63;8.90;;;;;;;;;;5037176;28;20432;-59
2021/01/08 01:04:33;;;;;;;9.17;7.37;;;;;;;;;;5036154;28;20436;-58
2021/01/08 01:06:59;;;;;;;9.40;7.70;;;;;;;;;;5055224;28;20715;-58
2021/01/08 01:09:25;;;;;;;9.23;7.87;;;;;;;;;;5039850;28;20267;-58
2021/01/08 01:11:51;;;;;;;8.83;7.83;;;;;;;;;;5048144;28;20207;-59
2021/01/08 01:14:17;;;;;;;10.60;9.03;;;;;;;;;;5056869;28;20525;-59
2021/01/08 01:16:43;;;;;;;10.43;8.40;;;;;;;;;;5042178;28;20180;-58
2021/01/08 01:19:09;;;;;;;9.30;8.30;;;;;;;;;;5063040;28;20424;-58
2021/01/08 01:21:35;;;;;;;9.37;8.33;;;;;;;;;;5058507;28;20677;-58
2021/01/08 01:24:02;;;;;;;8.97;8.07;;;;;;;;;;5069936;28;20477;-61
2021/01/08 01:26:28;;;;;;;9.13;8.03;;;;;;;;;;5050913;28;20483;-58
2021/01/08 01:28:54;;;;;;;9.73;8.73;;;;;;;;;;5057039;28;20902;-58
2021/01/08 01:31:20;;;;;;;10.43;8.87;;;;;;;;;;5056873;28;20266;-58
2021/01/08 01:33:46;;;;;;;9.83;7.90;;;;;;;;;;5039646;28;20728;-58
2021/01/08 01:36:12;;;;;;;8.37;7.13;;;;;;;;;;5055767;28;20184;-61
2021/01/08 01:38:38;;;;;;;8.53;7.23;;;;;;;;;;5060260;28;20434;-59
2021/01/08 01:41:05;;;;;;;10.17;8.53;;;;;;;;;;5055591;28;20752;-58
2021/01/08 01:43:31;;;;;;;11.00;8.10;;;;;;;;;;5054807;28;20438;-58
2021/01/08 01:45:57;;;;;;;9.87;7.70;;;;;;;;;;5058050;28;20469;-59
2021/01/08 01:48:24;;;;;;;8.83;7.80;;;;;;;;;;5058243;28;20519;-58
2021/01/08 01:50:50;;;;;;;9.20;8.13;;;;;;;;;;5051665;28;20412;-58
2021/01/08 01:53:16;;;;;;;9.80;8.00;;;;;;;;;;5058285;28;20432;-58
2021/01/08 01:55:43;;;;;;;10.20;8.40;;;;;;;;;;5059236;28;20796;-58
2021/01/08 01:58:09;;;;;;;9.93;8.53;;;;;;;;;;5033052;28;20415;-58
2021/01/08 02:00:35;;;;;;;10.17;8.37;;;;;;;;;;5051224;28;20791;-58
2021/01/08 02:03:20;;;;;;;9.53;8.50;;;;;;;;;;5063668;28;20466;-59
2021/01/08 02:05:49;;;;;;;9.43;8.40;;;;;;;;;;5038453;28;20902;-59
2021/01/08 02:08:20;;;;;;;9.53;8.17;;;;;;;;;;5051356;28;20805;-58
2021/01/08 02:10:46;;;;;;;8.90;8.00;;;;;;;;;;5052012;28;20419;-58
2021/01/08 02:13:18;;;;;;;8.90;7.87;;;;;;;;;;5050639;28;20427;-58
2021/01/08 02:15:44;;;;;;;10.30;8.73;;;;;;;;;;5054691;28;20218;-58
2021/01/08 02:18:10;;;;;;;9.10;8.10;;;;;;;;;;5050862;28;20478;-58
2021/01/08 02:20:37;;;;;;;9.27;7.67;;;;;;;;;;5033405;28;20473;-58
2021/01/08 02:23:23;;;;;;;8.90;7.70;;;;;;;;;;5043092;28;20423;-58
2021/01/08 02:25:50;;;;;;;8.93;8.03;;;;;;;;;;5059051;28;20505;-58
2021/01/08 02:28:20;;;;;;;9.37;8.20;;;;;;;;;;5070803;28;20406;-58
2021/01/08 02:30:46;;;;;;;8.00;7.03;;;;;;;;;;5058080;28;20448;-58
2021/01/08 02:33:13;;;;;;;8.57;7.67;;;;;;;;;;5059341;28;20488;-60
2021/01/08 02:35:39;;;;;;;8.03;7.23;;;;;;;;;;5053791;28;20416;-58
2021/01/08 02:38:06;;;;;;;8.13;7.30;;;;;;;;;;5064040;28;20782;-58
2021/01/08 02:40:32;;;;;;;8.10;7.30;;;;;;;;;;5032259;28;20439;-58
2021/01/08 02:43:01;;;;;;;8.00;7.20;;;;;;;;;;5060249;28;20542;-59
2021/01/08 02:45:27;;;;;;;9.53;7.33;;;;;;;;;;5051170;28;20419;-60
2021/01/08 02:47:53;;;;;;;10.17;7.77;;;;;;;;;;5069143;28;20426;-58
2021/01/08 02:50:19;;;;;;;8.07;7.27;;;;;;;;;;5058006;28;20431;-58
2021/01/08 02:52:48;;;;;;;7.90;7.10;;;;;;;;;;5038399;28;20419;-58
2021/01/08 02:55:17;;;;;;;8.27;7.47;;;;;;;;;;5050113;28;20954;-59
2021/01/08 02:57:44;;;;;;;8.83;7.93;;;;;;;;;;5057984;28;20426;-59
2021/01/08 03:00:10;;;;;;;8.20;7.40;;;;;;;;;;5069296;28;20425;-58
2021/01/08 03:02:37;;;;;;;8.60;7.70;;;;;;;;;;5045086;28;20459;-58
2021/01/08 03:05:03;;;;;;;7.90;7.10;;;;;;;;;;5062200;28;20428;-59
2021/01/08 03:07:29;;;;;;;7.67;6.87;;;;;;;;;;5066579;28;20437;-58
2021/01/08 03:09:55;;;;;;;7.60;6.90;;;;;;;;;;5072958;28;20905;-58
2021/01/08 03:12:21;;;;;;;7.33;6.63;;;;;;;;;;5059816;28;20434;-60
2021/01/08 03:14:48;;;;;;;7.40;6.70;;;;;;;;;;5066664;28;20235;-59
2021/01/08 03:17:14;;;;;;;8.07;7.23;;;;;;;;;;5069070;28;20185;-59
2021/01/08 03:19:41;;;;;;;7.17;6.47;;;;;;;;;;5060052;28;20462;-58
2021/01/08 03:22:07;;;;;;;7.03;6.33;;;;;;;;;;5065063;28;20430;-58
2021/01/08 03:24:33;;;;;;;7.57;6.87;;;;;;;;;;5055673;28;20443;-58
2021/01/08 03:26:59;;;;;;;7.77;6.97;;;;;;;;;;5055015;28;20997;-59
2021/01/08 03:29:25;;;;;;;7.83;7.03;;;;;;;;;;5053580;28;20453;-58
2021/01/08 03:31:51;;;;;;;7.10;6.20;;;;;;;;;;5060481;28;20513;-58
2021/01/08 03:34:17;;;;;;;7.40;6.70;;;;;;;;;;5068181;28;20513;-58
2021/01/08 03:36:43;;;;;;;7.60;6.87;;;;;;;;;;5061467;28;20548;-58
2021/01/08 03:39:09;;;;;;;8.40;6.50;;;;;;;;;;5051037;28;20471;-58
2021/01/08 03:41:35;;;;;;;8.50;6.40;;;;;;;;;;5063329;28;20335;-58
2021/01/08 03:44:01;;;;;;;7.83;6.83;;;;;;;;;;5044832;28;20253;-58
2021/01/08 03:46:27;;;;;;;7.23;6.53;;;;;;;;;;5061657;28;20180;-58
2021/01/08 03:48:53;;;;;;;7.77;6.53;;;;;;;;;;5063596;28;20180;-60
2021/01/08 03:51:19;;;;;;;7.20;6.47;;;;;;;;;;5056166;28;20517;-59
2021/01/08 03:53:45;;;;;;;7.23;6.53;;;;;;;;;;5061294;28;20450;-60
2021/01/08 03:56:11;;;;;;;7.77;6.40;;;;;;;;;;5052591;28;20431;-59
2021/01/08 03:58:37;;;;;;;7.43;6.73;;;;;;;;;;5052776;28;20922;-59
2021/01/08 04:01:03;;;;;;;6.00;5.40;;;;;;;;;;5035161;28;20188;-58
2021/01/08 04:03:29;;;;;;;7.10;6.23;;;;;;;;;;5054783;28;20228;-59
2021/01/08 04:05:55;;;;;;;6.77;6.07;;;;;;;;;;5053038;28;20423;-58
2021/01/08 04:08:21;;;;;;;7.23;6.53;;;;;;;;;;5035241;28;20180;-59
2021/01/08 04:10:47;;;;;;;8.00;7.20;;;;;;;;;;5052562;28;20996;-58
2021/01/08 04:13:13;;;;;;;6.67;6.00;;;;;;;;;;5053105;28;20182;-58
2021/01/08 04:15:39;;;;;;;7.73;6.63;;;;;;;;;;5052675;28;20181;-58
2021/01/08 04:18:05;;;;;;;7.07;6.37;;;;;;;;;;5052681;28;20200;-58
2021/01/08 04:20:31;;;;;;;8.80;6.70;;;;;;;;;;5054799;28;20798;-58
2021/01/08 04:22:57;;;;;;;6.67;5.93;;;;;;;;;;5053020;28;20434;-59
2021/01/08 04:25:23;;;;;;;7.10;6.13;;;;;;;;;;5039201;28;21000;-58
2021/01/08 04:27:49;;;;;;;7.37;6.50;;;;;;;;;;5050627;28;20236;-59
2021/01/08 04:30:15;;;;;;;7.23;6.50;;;;;;;;;;5071602;28;20204;-58
2021/01/08 04:32:41;;;;;;;6.23;5.63;;;;;;;;;;5044290;28;20223;-59
2021/01/08 04:35:08;;;;;;;7.00;6.30;;;;;;;;;;5053825;28;20483;-58
2021/01/08 04:37:34;;;;;;;6.53;5.83;;;;;;;;;;5043904;28;20195;-60
2021/01/08 04:40:00;;;;;;;7.27;6.50;;;;;;;;;;5061616;28;20432;-58
2021/01/08 04:42:26;;;;;;;7.60;6.67;;;;;;;;;;5058944;28;20777;-58
2021/01/08 04:44:52;;;;;;;7.97;7.17;;;;;;;;;;5038758;28;20469;-58
2021/01/08 04:47:18;;;;;;;6.63;5.93;;;;;;;;;;5063748;28;20510;-59
2021/01/08 04:49:44;;;;;;;6.97;5.83;;;;;;;;;;5052398;28;20964;-59
2021/01/08 04:52:12;;;;;;;7.77;6.97;;;;;;;;;;5035693;28;20420;-59
2021/01/08 04:54:38;;;;;;;7.30;6.60;;;;;;;;;;5054825;28;21019;-58
2021/01/08 04:57:05;;;;;;;7.07;6.37;;;;;;;;;;5052272;28;20489;-60
2021/01/08 04:59:31;;;;;;;7.43;6.53;;;;;;;;;;5062239;28;20419;-59
2021/01/08 05:01:57;;;;;;;7.57;6.37;;;;;;;;;;5034963;28;20431;-58
2021/01/08 05:04:23;;;;;;;6.57;5.97;;;;;;;;;;5058983;28;20473;-58
2021/01/08 05:06:50;;;;;;;7.43;6.27;;;;;;;;;;5037432;28;20447;-59
2021/01/08 05:09:16;;;;;;;6.80;6.10;;;;;;;;;;5033758;28;20424;-58
2021/01/08 05:11:45;;;;;;;7.37;6.50;;;;;;;;;;5051797;28;20430;-58
2021/01/08 05:14:11;;;;;;;7.40;6.60;;;;;;;;;;5033349;28;20464;-58
2021/01/08 05:16:37;;;;;;;6.93;6.10;;;;;;;;;;5052849;28;20416;-59
2021/01/08 05:19:04;;;;;;;8.50;6.70;;;;;;;;;;5051505;28;20422;-58
2021/01/08 05:21:31;;;;;;;7.13;6.43;;;;;;;;;;5053539;28;20967;-59
2021/01/08 05:23:58;;;;;;;6.77;6.07;;;;;;;;;;5070057;28;20399;-58
2021/01/08 05:26:24;;;;;;;7.20;6.47;;;;;;;;;;5051542;28;20177;-58
2021/01/08 05:28:52;;;;;;;6.90;6.17;;;;;;;;;;5032435;28;20782;-59
2021/01/08 05:31:19;;;;;;;6.73;5.93;;;;;;;;;;5051406;28;20439;-59
2021/01/08 05:33:46;;;;;;;6.90;6.20;;;;;;;;;;5062826;28;21136;-58
2021/01/08 05:36:12;;;;;;;6.33;5.50;;;;;;;;;;5051234;28;20454;-59
2021/01/08 05:38:45;;;;;;;6.87;6.20;;;;;;;;;;5051605;28;20481;-59
2021/01/08 05:41:11;;;;;;;7.13;6.00;;;;;;;;;;5070459;28;20446;-58
2021/01/08 05:43:41;;;;;;;7.33;5.93;;;;;;;;;;5065552;28;20495;-58
2021/01/08 05:46:14;;;;;;;6.70;5.97;;;;;;;;;;5061436;28;20422;-58
2021/01/08 05:48:41;;;;;;;7.27;5.83;;;;;;;;;;5058338;28;20520;-59
2021/01/08 05:51:08;;;;;;;6.43;5.77;;;;;;;;;;5032872;28;20408;-58
2021/01/08 05:53:34;;;;;;;7.13;6.40;;;;;;;;;;5059666;28;20944;-59
2021/01/08 05:56:00;;;;;;;7.30;6.10;;;;;;;;;;5049798;28;20499;-59
2021/01/08 05:58:28;;;;;;;6.03;5.43;;;;;;;;;;5049918;28;20403;-58
2021/01/08 06:00:54;;;;;;;7.07;5.77;;;;;;;;;;5032143;28;20420;-58
2021/01/08 06:03:22;;;;;;;7.07;5.67;;;;;;;;;;5041715;28;20471;-59
2021/01/08 06:05:48;;;;;;;5.87;5.13;;;;;;;;;;5049599;28;20894;-58
2021/01/08 06:08:15;;;;;;;7.03;6.17;;;;;;;;;;5049862;28;20423;-58
2021/01/08 06:10:44;;;;;;;8.50;5.77;;;;;;;;;;5052908;28;20219;-58
2021/01/08 06:13:10;;;;;;;6.30;5.40;;;;;;;;;;5059438;28;20418;-58
2021/01/08 06:15:37;;;;;;;6.80;5.90;;;;;;;;;;5059601;28;20432;-58
2021/01/08 06:18:04;;;;;;;6.17;5.37;;;;;;;;;;5058851;28;20453;-58
2021/01/08 06:20:30;;;;;;;6.47;5.67;;;;;;;;;;5053809;28;21034;-58
2021/01/08 06:22:56;;;;;;;7.13;5.83;;;;;;;;;;5050612;28;20408;-59
2021/01/08 06:25:24;;;;;;;6.73;5.73;;;;;;;;;;5066578;28;20233;-59
2021/01/08 06:27:54;;;;;;;7.27;5.70;;;;;;;;;;5067853;28;20168;-59
2021/01/08 06:30:27;;;;;;;7.10;5.70;;;;;;;;;;5062299;28;20467;-58
2021/01/08 06:33:04;;;;;;;6.47;5.60;;;;;;;;;;5041164;28;20411;-58
2021/01/08 06:35:32;;;;;;;9.07;5.50;;;;;;;;;;5056895;28;20452;-59
2021/01/08 06:37:59;;;;;;;6.27;5.47;;;;;;;;;;5056923;28;20921;-58
2021/01/08 06:40:37;;;;;;;5.80;5.17;;;;;;;;;;5065303;28;20416;-59
2021/01/08 06:43:07;;;;;;;7.50;4.97;;;;;;;;;;5047967;28;20411;-58
2021/01/08 06:45:33;;;;;;;6.30;5.00;;;;;;;;;;5051901;28;20481;-58
2021/01/08 06:48:02;;;;;;;7.17;5.97;;;;;;;;;;5067805;28;20539;-59
2021/01/08 06:50:28;;;;;;;7.60;6.10;;;;;;;;;;5060892;28;20419;-59
2021/01/08 06:52:58;;;;;;;7.30;5.80;;;;;;;;;;5033589;28;20833;-58
2021/01/08 06:55:24;;;;;;;6.27;5.40;;;;;;;;;;5060306;28;20455;-58
2021/01/08 06:57:54;;;;;;;7.23;5.50;;;;;;;;;;5050328;28;20949;-58
2021/01/08 07:00:28;;;;;;;5.70;4.93;;;;;;;;;;5069295;28;20402;-59
2021/01/08 07:02:57;;;;;;;5.83;5.23;;;;;;;;;;5042144;28;20479;-58
2021/01/08 07:05:23;;;;;;;7.17;5.30;;;;;;;;;;5049738;28;20921;-59
2021/01/08 07:07:50;;;;;;;6.57;5.37;;;;;;;;;;5049705;28;20435;-59
2021/01/08 07:10:16;;;;;;;8.67;5.27;;;;;;;;;;5037467;28;20962;-58
2021/01/08 07:12:43;;;;;;;9.30;6.10;;;;;;;;;;5069748;28;20409;-58
2021/01/08 07:15:10;;;;;;;6.83;5.27;;;;;;;;;;5060487;28;20459;-58
2021/01/08 07:17:38;;;;;;;5.73;4.60;;;;;;;;;;5050147;28;20412;-59
2021/01/08 07:20:05;;;;;;;6.83;5.07;;;;;;;;;;5054039;28;20423;-59
2021/01/08 07:22:39;;;;;;;5.97;5.17;;;;;;;;;;5050672;28;20789;-58
2021/01/08 07:25:11;;;;;;;6.53;5.23;;;;;;;;;;5049243;28;21081;-59
2021/01/08 07:27:38;;;;;;;6.70;5.00;;;;;;;;;;5041490;28;20956;-59
2021/01/08 07:30:05;;;;;;;5.97;5.03;;;;;;;;;;5049684;28;20435;-58
2021/01/08 07:32:31;;;;;;;6.17;5.07;;;;;;;;;;5061722;28;20434;-59
2021/01/08 07:34:58;;;;;;;7.00;5.03;;;;;;;;;;5056973;28;20467;-60
2021/01/08 07:37:56;;;;;;;10.33;5.17;;;;;;;;;;5051273;28;20484;-58
2021/01/08 07:40:23;;;;;;;6.83;5.20;;;;;;;;;;4982558;28;20432;-58
2021/01/08 07:43:18;;;;;;;6.10;4.83;;;;;;;;;;5048890;28;20778;-58
2021/01/08 07:45:54;;;;;;;5.77;4.67;;;;;;;;;;5032788;28;20427;-58
2021/01/08 07:48:21;;;;;;;8.17;5.60;;;;;;;;;;5030995;28;20525;-59
2021/01/08 07:50:51;;;;;;;7.93;4.97;;;;;;;;;;5049998;28;20424;-59
2021/01/08 07:53:47;;;;;;;5.80;4.93;;;;;;;;;;5043667;28;20418;-58
2021/01/08 07:56:17;;;;;;;6.07;4.00;;;;;;;;;;5018266;28;20420;-58
2021/01/08 07:58:44;;;;;;;6.47;5.23;;;;;;;;;;5052141;28;20419;-59
2021/01/08 08:01:11;;;;;;;6.40;4.60;;;;;;;;;;5058079;28;20513;-59
2021/01/08 08:03:38;;;;;;;5.80;4.87;;;;;;;;;;5055537;28;20467;-59
2021/01/08 08:06:04;;;;;;;7.03;5.30;;;;;;;;;;5052633;28;20419;-58
2021/01/08 08:08:30;;;;;;;6.53;4.77;;;;;;;;;;5054233;28;20418;-59
2021/01/08 08:11:19;;;;;;;4.93;4.37;;;;;;;;;;5052662;28;20431;-59
2021/01/08 08:13:45;;;;;;;5.60;4.80;;;;;;;;;;5056198;28;20446;-58
2021/01/08 08:16:12;;;;;;;4.57;4.10;;;;;;;;;;5057497;28;20445;-59
2021/01/08 08:18:54;;;;;;;5.60;4.90;;;;;;;;;;5065173;28;20437;-59
2021/01/08 08:21:20;;;;;;;7.23;4.70;;;;;;;;;;5052597;28;20415;-58
2021/01/08 08:23:53;;;;;;;5.73;4.63;;;;;;;;;;5034891;28;20534;-58
2021/01/08 08:26:19;;;;;;;5.17;4.57;;;;;;;;;;5055281;28;20497;-58
2021/01/08 08:28:57;;;;;;;5.17;4.63;;;;;;;;;;5033647;28;20918;-58
2021/01/08 08:31:25;;;;;;;4.63;4.13;;;;;;;;;;5050893;28;20518;-59
2021/01/08 08:33:51;;;;;;;6.37;4.60;;;;;;;;;;5055112;28;20475;-58
2021/01/08 08:36:21;;;;;;;4.17;3.77;;;;;;;;;;5064018;28;20748;-59
2021/01/08 08:38:55;;;;;;;5.77;4.60;;;;;;;;;;5048908;28;20424;-59
2021/01/08 08:41:21;;;;;;;6.93;5.00;;;;;;;;;;5033769;28;20436;-58
2021/01/08 08:43:47;;;;;;;7.33;4.90;;;;;;;;;;5051386;28;20416;-59
2021/01/08 08:46:13;;;;;;;7.30;4.87;;;;;;;;;;5057064;28;20428;-59
2021/01/08 08:48:40;;;;;;;4.63;4.13;;;;;;;;;;5071815;28;20532;-58
2021/01/08 08:51:06;;;;;;;4.97;4.23;;;;;;;;;;5063116;28;20232;-58
2021/01/08 08:53:32;;;;;;;5.27;4.77;;;;;;;;;;5059148;28;20505;-59
2021/01/08 08:56:10;;;;;;;4.70;4.17;;;;;;;;;;5068109;28;20412;-58
2021/01/08 08:58:44;;;;;;;6.23;4.33;;;;;;;;;;5070680;28;20713;-59
2021/01/08 09:01:10;;;;;;;4.23;3.43;;;;;;;;;;5047317;28;20921;-59
2021/01/08 09:03:36;;;;;;;4.47;4.00;;;;;;;;;;5056460;28;20490;-59
2021/01/08 09:06:10;;;;;;;4.57;3.90;;;;;;;;;;5056355;28;20173;-59
2021/01/08 09:08:36;;;;;;;5.70;4.50;;;;;;;;;;5051409;28;20184;-59
2021/01/08 09:11:25;;;;;;;4.33;3.77;;;;;;;;;;5049784;28;20415;-59
2021/01/08 09:13:57;;;;;;;4.73;4.10;;;;;;;;;;5036549;28;20545;-58
2021/01/08 09:16:26;;;;;;;4.50;4.10;;;;;;;;;;5057385;28;20420;-58
2021/01/08 09:19:01;;;;;;;4.50;4.03;;;;;;;;;;5064190;28;20988;-59
2021/01/08 09:21:31;;;;;;;4.80;4.30;;;;;;;;;;5058247;28;20427;-59
2021/01/08 09:23:59;;;;;;;4.57;3.80;;;;;;;;;;5046126;28;20707;-59
2021/01/08 09:26:25;;;;;;;4.97;4.43;;;;;;;;;;5044554;28;20424;-58
2021/01/08 09:28:55;;;;;;;5.57;4.33;;;;;;;;;;5057381;28;20432;-59
2021/01/08 09:31:37;;;;;;;6.30;4.87;;;;;;;;;;5063919;28;20933;-60
2021/01/08 09:34:03;;;;;;;7.20;5.07;;;;;;;;;;5040675;28;20877;-59
2021/01/08 09:36:30;;;;;;;6.40;4.20;;;;;;;;;;5061291;28;20450;-59
2021/01/08 09:39:00;;;;;;;7.13;5.07;;;;;;;;;;5061297;28;20496;-58
2021/01/08 09:41:26;;;;;;;5.40;4.23;;;;;;;;;;5059081;28;20506;-59
2021/01/08 09:43:57;;;;;;;7.40;4.57;;;;;;;;;;5059883;28;20522;-61
2021/01/08 09:46:23;;;;;;;6.03;4.50;;;;;;;;;;5037087;28;20424;-58
2021/01/08 09:48:49;;;;;;;7.07;5.30;;;;;;;;;;5052760;28;20521;-58
2021/01/08 09:51:15;;;;;;;6.43;4.80;;;;;;;;;;5065592;28;20422;-58
2021/01/08 09:53:41;;;;;;;6.00;5.10;;;;;;;;;;5069630;28;20489;-58
2021/01/08 09:56:14;;;;;;;5.27;4.50;;;;;;;;;;5040840;28;20956;-59
2021/01/08 09:58:40;;;;;;;5.33;4.10;;;;;;;;;;5059759;28;20230;-59
2021/01/08 10:01:08;;;;;;;5.63;4.77;;;;;;;;;;5057652;28;20459;-58
2021/01/08 10:03:34;;;;;;;6.70;4.70;;;;;;;;;;5057437;28;20455;-59
2021/01/08 10:06:09;;;;;;;6.80;4.77;;;;;;;;;;5055837;28;20419;-58
2021/01/08 10:08:35;;;;;;;7.13;4.57;;;;;;;;;;5058748;28;20982;-58
2021/01/08 10:11:01;;;;;;;6.10;4.53;;;;;;;;;;5058325;28;20452;-59
2021/01/08 10:13:27;;;;;;;6.47;4.87;;;;;;;;;;5056715;28;20496;-59
2021/01/08 10:15:56;;;;;;;6.23;4.50;;;;;;;;;;5054969;28;20423;-59
2021/01/08 10:18:22;;;;;;;8.93;5.23;;;;;;;;;;5060179;28;20517;-58
2021/01/08 10:20:49;;;;;;;6.17;4.37;;;;;;;;;;5049537;28;20430;-59
2021/01/08 10:23:17;;;;;;;5.33;3.93;;;;;;;;;;5054705;28;20489;-59
2021/01/08 10:25:43;;;;;;;6.63;4.53;;;;;;;;;;5047968;28;20918;-60
2021/01/08 10:28:16;;;;;;;6.00;4.40;;;;;;;;;;5049186;28;20411;-59
2021/01/08 10:30:43;;;;;;;7.13;4.63;;;;;;;;;;5031401;28;20431;-59
2021/01/08 10:33:09;;;;;;;7.07;4.57;;;;;;;;;;5032056;28;20493;-59
2021/01/08 10:35:36;;;;;;;8.53;4.83;;;;;;;;;;5050064;28;20483;-59
2021/01/08 10:38:02;;;;;;;7.40;4.40;;;;;;;;;;5063172;28;20499;-59
2021/01/08 10:40:28;;;;;;;6.10;4.50;;;;;;;;;;5042694;28;20415;-58
2021/01/08 10:42:54;;;;;;;6.13;4.57;;;;;;;;;;5056238;28;20419;-59
2021/01/08 10:45:20;;;;;;;5.63;4.10;;;;;;;;;;5053547;28;20941;-58
2021/01/08 10:47:47;;;;;;;5.93;4.10;;;;;;;;;;5056885;28;20419;-59
2021/01/08 10:50:13;;;;;;;5.23;4.00;;;;;;;;;;5057440;28;20424;-59
2021/01/08 10:52:39;;;;;;;6.53;5.13;;;;;;;;;;5040179;28;20428;-59
2021/01/08 10:55:06;;;;;;;7.57;4.77;;;;;;;;;;5042549;28;20459;-59
2021/01/08 10:57:32;;;;;;;6.00;3.77;;;;;;;;;;5055697;28;20427;-58
2021/01/08 10:59:58;;;;;;;5.53;4.23;;;;;;;;;;5057272;28;21402;-59
2021/01/08 11:02:24;;;;;;;8.23;4.73;;;;;;;;;;5068377;28;20454;-59
2021/01/08 11:04:50;;;;;;;4.87;3.93;;;;;;;;;;5069268;28;20172;-59
2021/01/08 11:07:16;;;;;;;6.63;4.57;;;;;;;;;;5042682;28;20423;-59
2021/01/08 11:09:43;;;;;;;6.00;4.30;;;;;;;;;;5038122;28;20446;-59
2021/01/08 11:12:09;;;;;;;5.83;4.37;;;;;;;;;;5064431;28;20488;-58
2021/01/08 11:14:35;;;;;;;5.10;3.97;;;;;;;;;;5067006;28;20997;-58
2021/01/08 11:17:01;;;;;;;5.50;4.47;;;;;;;;;;5052636;28;20415;-58
2021/01/08 11:19:27;;;;;;;5.30;4.00;;;;;;;;;;5048845;28;20423;-59
2021/01/08 11:21:54;;;;;;;6.00;4.97;;;;;;;;;;5059720;28;20177;-59
2021/01/08 11:24:20;;;;;;;6.70;4.37;;;;;;;;;;5030095;28;20423;-59
2021/01/08 11:26:46;;;;;;;6.67;4.47;;;;;;;;;;5049540;28;20421;-59
2021/01/08 11:29:12;;;;;;;5.33;4.30;;;;;;;;;;5037930;28;20745;-61
2021/01/08 11:31:38;;;;;;;5.83;4.47;;;;;;;;;;5055750;28;20841;-59
2021/01/08 11:34:05;;;;;;;4.13;3.23;;;;;;;;;;5059676;28;20490;-62
2021/01/08 11:36:31;;;;;;;6.33;3.90;;;;;;;;;;5069113;28;20426;-59
2021/01/08 11:38:57;;;;;;;4.47;3.67;;;;;;;;;;5064502;28;20431;-60
2021/01/08 11:41:23;;;;;;;5.50;4.30;;;;;;;;;;5052474;28;20400;-59
2021/01/08 11:43:49;;;;;;;6.20;4.47;;;;;;;;;;5039050;28;21064;-60
2021/01/08 11:46:16;;;;;;;4.83;3.97;;;;;;;;;;5034721;28;20412;-59
2021/01/08 11:48:43;;;;;;;5.70;4.20;;;;;;;;;;5052653;28;20769;-59
2021/01/08 11:51:12;;;;;;;4.60;4.20;;;;;;;;;;5053698;28;20415;-59
2021/01/08 11:53:40;;;;;;;4.57;3.63;;;;;;;;;;5036825;28;20415;-58
2021/01/08 11:56:08;;;;;;;5.03;4.03;;;;;;;;;;5071866;28;20441;-58
2021/01/08 11:58:34;;;;;;;5.67;4.17;;;;;;;;;;5061462;28;20759;-58
2021/01/08 12:01:00;;;;;;;4.90;3.90;;;;;;;;;;5058172;28;20430;-59
2021/01/08 12:03:26;;;;;;;5.17;3.37;;;;;;;;;;5056195;28;20952;-59
2021/01/08 12:05:53;;;;;;;5.30;4.33;;;;;;;;;;5054923;28;20192;-57
2021/01/08 12:08:19;;;;;;;5.20;4.30;;;;;;;;;;5061812;28;20980;-58
2021/01/08 12:10:45;;;;;;;6.13;5.27;;;;;;;;;;5061390;28;20832;-59
2021/01/08 12:13:11;;;;;;;6.00;4.90;;;;;;;;;;5065309;28;20435;-57
2021/01/08 12:15:38;;;;;;;9.53;4.93;;;;;;;;;;5054107;28;20504;-58
2021/01/08 12:18:04;;;;;;;5.53;4.57;;;;;;;;;;5038334;28;20687;-57
2021/01/08 12:20:30;;;;;;;8.03;4.90;;;;;;;;;;5039491;28;20427;-58
2021/01/08 12:22:56;;;;;;;5.40;4.60;;;;;;;;;;5056304;28;20477;-58
2021/01/08 12:25:22;;;;;;;5.80;4.40;;;;;;;;;;5055439;28;20450;-58
2021/01/08 12:27:48;;;;;;;6.80;4.20;;;;;;;;;;5035304;28;20213;-58
2021/01/08 12:30:14;;;;;;;7.70;4.47;;;;;;;;;;5041342;28;20729;-58
2021/01/08 12:32:40;;;;;;;5.47;4.30;;;;;;;;;;5060831;28;20425;-58
2021/01/08 12:35:06;;;;;;;6.13;4.30;;;;;;;;;;5057124;28;20589;-58
2021/01/08 12:37:32;;;;;;;6.93;3.87;;;;;;;;;;5062940;28;20501;-58
2021/01/08 12:39:58;;;;;;;5.47;4.27;;;;;;;;;;5061185;28;20844;-58
2021/01/08 12:42:24;;;;;;;4.47;3.60;;;;;;;;;;5062457;28;20454;-58
2021/01/08 12:44:50;;;;;;;5.00;3.73;;;;;;;;;;5063486;28;20300;-58
2021/01/08 12:47:16;;;;;;;4.83;3.37;;;;;;;;;;5052139;28;20940;-58
2021/01/08 12:49:42;;;;;;;4.37;3.47;;;;;;;;;;5040988;28;20238;-58
2021/01/08 12:52:09;;;;;;;5.10;3.20;;;;;;;;;;5042898;28;20585;-58
2021/01/08 12:54:35;;;;;;;8.33;4.00;;;;;;;;;;5057706;28;20459;-58
2021/01/08 12:57:01;;;;;;;5.13;3.27;;;;;;;;;;5059363;28;20563;-58
2021/01/08 12:59:27;;;;;;;3.47;3.10;;;;;;;;;;5057196;28;20515;-58
2021/01/08 13:01:57;;;;;;;4.97;3.20;;;;;;;;;;5067000;28;20193;-58
2021/01/08 13:04:23;;;;;;;5.87;3.37;;;;;;;;;;5042198;28;20434;-59
2021/01/08 13:06:49;;;;;;;4.37;3.23;;;;;;;;;;5058082;28;20431;-58
2021/01/08 13:09:15;;;;;;;5.60;3.13;;;;;;;;;;5035591;28;20416;-58
2021/01/08 13:11:41;;;;;;;4.93;3.47;;;;;;;;;;5066216;28;20422;-58
2021/01/08 13:14:07;;;;;;;5.17;3.00;;;;;;;;;;5070856;28;20261;-58
2021/01/08 13:16:33;;;;;;;4.47;3.50;;;;;;;;;;5061746;28;20430;-58
2021/01/08 13:18:59;;;;;;;3.30;2.93;;;;;;;;;;5069779;28;20627;-58
2021/01/08 13:21:25;;;;;;;4.77;3.73;;;;;;;;;;5058975;28;20416;-58
2021/01/08 13:23:51;;;;;;;4.47;3.03;;;;;;;;;;5065061;28;20411;-59
2021/01/08 13:26:24;;;;;;;3.60;2.93;;;;;;;;;;5056091;28;20632;-58
2021/01/08 13:28:50;;;;;;;4.10;3.13;;;;;;;;;;5062974;28;20538;-58
2021/01/08 13:31:23;;;;;;;9.57;4.47;;;;;;;;;;5056724;28;20458;-58
2021/01/08 13:33:49;;;;;;;3.60;3.23;;;;;;;;;;5054759;28;20756;-58
2021/01/08 13:36:16;;;;;;;6.00;4.23;;;;;;;;;;5055696;28;20462;-59
2021/01/08 13:38:42;;;;;;;9.87;4.47;;;;;;;;;;5064193;28;20419;-58
2021/01/08 13:41:08;;;;;;;5.60;4.33;;;;;;;;;;5036262;28;20527;-60
2021/01/08 13:43:34;;;;;;;5.73;4.23;;;;;;;;;;5059671;28;20539;-59
2021/01/08 13:46:02;;;;;;;5.53;4.03;;;;;;;;;;5040295;28;20490;-58
2021/01/08 13:48:28;;;;;;;5.67;4.27;;;;;;;;;;5055687;28;20419;-58
2021/01/08 13:50:54;;;;;;;7.33;4.50;;;;;;;;;;5051020;28;20429;-58
2021/01/08 13:53:20;;;;;;;6.13;4.63;;;;;;;;;;5034780;28;20431;-57
2021/01/08 13:55:46;;;;;;;6.87;5.13;;;;;;;;;;5066864;28;20861;-58
2021/01/08 13:58:12;;;;;;;7.37;5.23;;;;;;;;;;5054523;28;20430;-58
2021/01/08 14:00:38;;;;;;;8.07;5.43;;;;;;;;;;5053956;28;20181;-58
2021/01/08 14:03:04;;;;;;;8.27;5.17;;;;;;;;;;5051867;28;20516;-58
2021/01/08 14:05:30;;;;;;;7.83;5.03;;;;;;;;;;5052015;28;20187;-60
2021/01/08 14:07:56;;;;;;;9.07;5.70;;;;;;;;;;5052744;28;20436;-58
2021/01/08 14:10:22;;;;;;;5.50;4.87;;;;;;;;;;5050724;28;20577;-57
2021/01/08 14:12:48;;;;;;;10.03;5.73;;;;;;;;;;5052105;28;20434;-57
2021/01/08 14:15:17;;;;;;;6.37;5.10;;;;;;;;;;5058658;28;20200;-58
2021/01/08 14:17:43;;;;;;;9.50;5.37;;;;;;;;;;5064262;28;20419;-57
2021/01/08 14:20:09;;;;;;;6.93;5.00;;;;;;;;;;5052538;28;20846;-58
2021/01/08 14:22:35;;;;;;;6.13;4.47;;;;;;;;;;5038036;28;20907;-58
2021/01/08 14:25:05;;;;;;;6.43;4.50;;;;;;;;;;5052714;28;20432;-57
2021/01/08 14:27:31;;;;;;;7.97;4.73;;;;;;;;;;5052227;28;20525;-57
2021/01/08 14:29:57;;;;;;;6.63;5.20;;;;;;;;;;5060154;28;20534;-59
2021/01/08 14:32:23;;;;;;;6.13;4.73;;;;;;;;;;5057442;28;20259;-57
2021/01/08 14:34:49;;;;;;;7.73;4.63;;;;;;;;;;5045427;28;20466;-58
2021/01/08 14:37:15;;;;;;;6.30;4.83;;;;;;;;;;5050673;28;20435;-57
2021/01/08 14:39:41;;;;;;;7.13;5.07;;;;;;;;;;5040853;28;20173;-58
2021/01/08 14:42:08;;;;;;;7.73;5.43;;;;;;;;;;5037827;28;20434;-58
2021/01/08 14:44:34;;;;;;;9.10;5.40;;;;;;;;;;5036688;28;20219;-58